Time;durP1;ratioP1;P1;durP2;ratioP2;P2;SDS_P1;SDS_P2;PMS_P1;PMS_P2;Temp;Humidity;BMP_temperature;BMP_pressure;BME280_temperature;BME280_humidity;BME280_pressure;Samples;Min_cycle;Max_cycle;Signal;HPM_P1;HPM_P2
2020/12/04 00:01:16;;;;;;;55.85;31.70;;;;;;;1.51;69.66;94594.72;4161996;28;20057;-69
2020/12/04 00:03:18;;;;;;;55.22;32.13;;;;;;;1.52;69.68;94604.13;4177574;28;20541;-69
2020/12/04 00:05:19;;;;;;;51.45;30.42;;;;;;;1.50;69.67;94606.78;4183914;28;20055;-69
2020/12/04 00:07:20;;;;;;;51.65;30.48;;;;;;;1.53;69.68;94608.38;4173349;28;20053;-68
2020/12/04 00:09:21;;;;;;;51.10;30.75;;;;;;;1.55;69.55;94606.47;4160432;28;20055;-67
2020/12/04 00:11:23;;;;;;;49.97;30.65;;;;;;;1.53;69.84;94601.44;4157130;28;20049;-69
2020/12/04 00:13:24;;;;;;;50.85;29.75;;;;;;;1.58;69.53;94595.94;4163544;28;20049;-68
2020/12/04 00:15:25;;;;;;;50.00;31.20;;;;;;;1.57;69.88;94608.03;4183146;28;20072;-69
2020/12/04 00:17:27;;;;;;;48.63;29.95;;;;;;;1.57;69.86;94602.03;4166163;28;20058;-69
2020/12/04 00:19:28;;;;;;;50.55;28.90;;;;;;;1.56;69.72;94606.38;4187274;28;20939;-69
2020/12/04 00:21:29;;;;;;;47.45;28.92;;;;;;;1.59;69.53;94602.75;4172868;28;20139;-68
2020/12/04 00:23:30;;;;;;;43.70;26.67;;;;;;;1.62;69.48;94605.13;4158711;28;20057;-68
2020/12/04 00:25:31;;;;;;;43.95;26.90;;;;;;;1.62;69.89;94616.28;4182914;28;20053;-70
2020/12/04 00:27:33;;;;;;;48.67;28.85;;;;;;;1.63;69.42;94602.44;4177425;28;20431;-68
2020/12/04 00:29:34;;;;;;;49.30;28.50;;;;;;;1.59;69.73;94608.75;4175753;28;20045;-68
2020/12/04 00:31:35;;;;;;;46.13;28.35;;;;;;;1.58;69.86;94612.25;4157981;28;20114;-69
2020/12/04 00:33:36;;;;;;;48.55;27.98;;;;;;;1.58;69.73;94601.94;4176935;28;20053;-69
2020/12/04 00:35:37;;;;;;;47.55;27.92;;;;;;;1.58;69.61;94604.50;4157974;28;20049;-68
2020/12/04 00:37:39;;;;;;;46.78;28.23;;;;;;;1.61;69.86;94598.31;4177229;28;20056;-68
2020/12/04 00:39:40;;;;;;;44.38;27.25;;;;;;;1.54;69.68;94599.66;4174938;28;20068;-68
2020/12/04 00:41:42;;;;;;;46.72;27.35;;;;;;;1.47;70.00;94599.28;4177389;28;20053;-68
2020/12/04 00:43:43;;;;;;;47.15;28.10;;;;;;;1.46;70.43;94600.19;4170317;28;20057;-69
2020/12/04 00:45:44;;;;;;;45.83;26.73;;;;;;;1.41;70.40;94597.13;4164978;28;20065;-76
2020/12/04 00:47:46;;;;;;;46.03;27.75;;;;;;;1.37;70.21;94606.00;4189635;28;21599;-76
2020/12/04 00:49:47;;;;;;;44.85;26.38;;;;;;;1.38;70.66;94603.31;4188343;28;20057;-76
2020/12/04 00:51:51;;;;;;;46.53;26.55;;;;;;;1.37;70.53;94591.31;4189706;28;20077;-74
2020/12/04 00:53:54;;;;;;;43.85;27.23;;;;;;;1.41;70.48;94595.34;4155955;28;20050;-76
2020/12/04 00:55:55;;;;;;;41.40;24.73;;;;;;;1.44;70.41;94602.06;4173506;28;20083;-75
2020/12/04 00:57:56;;;;;;;44.28;25.77;;;;;;;1.49;70.44;94604.34;4168372;28;20053;-77
2020/12/04 00:59:57;;;;;;;45.38;26.63;;;;;;;1.52;70.29;94594.59;4179703;28;20041;-75
2020/12/04 01:01:58;;;;;;;43.53;27.42;;;;;;;1.10;71.91;94576.00;4181147;28;20041;-76
2020/12/04 01:04:00;;;;;;;42.33;25.80;;;;;;;0.96;72.65;94578.69;4180530;28;20075;-77
2020/12/04 01:06:01;;;;;;;44.83;24.88;;;;;;;1.01;73.04;94568.88;4176539;28;20061;-76
2020/12/04 01:08:02;;;;;;;39.08;22.77;;;;;;;0.98;73.79;94579.41;4175757;28;20075;-75
2020/12/04 01:10:03;;;;;;;32.67;20.63;;;;;;;0.96;73.69;94574.34;4174970;28;20044;-77
2020/12/04 01:12:05;;;;;;;39.72;22.45;;;;;;;0.91;74.08;94566.09;4176855;28;20040;-76
2020/12/04 01:14:07;;;;;;;28.63;17.88;;;;;;;0.93;74.85;94560.84;4168224;28;20056;-75
2020/12/04 01:16:10;;;;;;;32.90;19.08;;;;;;;1.05;74.30;94560.00;4170573;28;20052;-75
2020/12/04 01:18:11;;;;;;;26.95;16.80;;;;;;;1.14;74.21;94554.22;4165320;28;20053;-75
2020/12/04 01:20:12;;;;;;;27.08;16.27;;;;;;;1.25;73.73;94547.47;4176318;28;20111;-77
2020/12/04 01:22:14;;;;;;;34.40;21.90;;;;;;;1.34;72.84;94559.75;4175463;28;20208;-77
2020/12/04 01:24:16;;;;;;;34.25;19.55;;;;;;;1.42;71.98;94550.56;4173885;28;20055;-77
2020/12/04 01:26:18;;;;;;;35.15;20.63;;;;;;;1.50;72.17;94549.19;4177031;28;20080;-77
2020/12/04 01:28:19;;;;;;;32.28;19.23;;;;;;;1.57;71.88;94540.91;4176195;28;20454;-75
2020/12/04 01:30:20;;;;;;;29.90;17.98;;;;;;;1.58;71.97;94539.97;4177880;28;20254;-77
2020/12/04 01:32:21;;;;;;;24.90;14.93;;;;;;;1.40;73.60;94536.94;4173939;28;20138;-76
2020/12/04 01:34:23;;;;;;;17.27;11.05;;;;;;;1.31;74.80;94545.31;4176780;28;20388;-76
2020/12/04 01:36:24;;;;;;;16.48;10.68;;;;;;;1.38;74.55;94535.41;4179276;28;20053;-74
2020/12/04 01:38:25;;;;;;;15.63;10.52;;;;;;;1.47;74.45;94524.41;4176375;28;20114;-74
2020/12/04 01:40:27;;;;;;;18.92;11.60;;;;;;;1.55;74.05;94531.59;4178210;28;20071;-76
2020/12/04 01:42:28;;;;;;;20.67;12.55;;;;;;;1.61;73.43;94519.09;4171476;28;20041;-77
2020/12/04 01:44:29;;;;;;;17.15;11.20;;;;;;;1.66;73.77;94531.69;4171165;28;20102;-75
2020/12/04 01:46:31;;;;;;;15.52;10.52;;;;;;;1.69;73.71;94528.88;4190823;28;20059;-75
2020/12/04 01:48:32;;;;;;;15.98;9.82;;;;;;;1.77;73.33;94521.41;4193099;28;20419;-76
2020/12/04 01:50:34;;;;;;;16.33;10.23;;;;;;;1.83;73.34;94517.56;4190797;28;20044;-76
2020/12/04 01:52:35;;;;;;;16.10;9.88;;;;;;;1.89;73.65;94511.94;4181241;28;20090;-75
2020/12/04 01:54:36;;;;;;;16.58;10.15;;;;;;;1.95;73.08;94501.16;4170328;28;20478;-76
2020/12/04 01:56:40;;;;;;;14.00;9.00;;;;;;;1.94;73.32;94496.94;4191911;28;20053;-76
2020/12/04 01:58:41;;;;;;;15.55;9.38;;;;;;;1.83;73.74;94499.50;4191468;28;20059;-77
2020/12/04 02:00:44;;;;;;;13.45;8.15;;;;;;;1.76;74.49;94498.25;4174083;28;20492;-75
2020/12/04 02:02:47;;;;;;;15.18;9.13;;;;;;;1.68;75.16;94498.81;4170449;28;20052;-76
2020/12/04 02:04:49;;;;;;;14.85;9.48;;;;;;;1.78;74.60;94496.41;4191220;28;20048;-76
2020/12/04 02:06:55;;;;;;;14.15;8.70;;;;;;;1.78;74.84;94493.81;4174969;28;20365;-76
2020/12/04 02:09:04;;;;;;;14.25;9.32;;;;;;;1.73;75.02;94493.34;4189558;28;20045;-75
2020/12/04 02:11:18;;;;;;;14.52;9.32;;;;;;;1.78;74.69;94480.91;4191108;28;20053;-76
2020/12/04 02:13:19;;;;;;;13.05;7.78;;;;;;;1.81;74.76;94476.34;4189215;28;20511;-76
2020/12/04 02:15:21;;;;;;;12.45;8.10;;;;;;;1.82;74.71;94479.75;4173552;28;20112;-75
2020/12/04 02:17:30;;;;;;;13.77;8.38;;;;;;;1.88;74.43;94466.38;4192450;28;20044;-75
2020/12/04 02:19:44;;;;;;;12.18;8.07;;;;;;;1.82;74.63;94472.81;4191269;28;20052;-77
2020/12/04 02:21:46;;;;;;;11.95;7.63;;;;;;;1.83;74.70;94465.91;4192285;28;20040;-77
2020/12/04 02:23:50;;;;;;;13.35;8.95;;;;;;;1.79;74.83;94473.03;4171594;28;20423;-76
2020/12/04 02:25:51;;;;;;;12.45;8.63;;;;;;;1.85;74.75;94479.53;4189285;28;20159;-76
2020/12/04 02:27:52;;;;;;;13.70;8.88;;;;;;;1.82;74.95;94474.56;4194663;28;20053;-77
2020/12/04 02:29:53;;;;;;;15.40;9.35;;;;;;;1.79;75.24;94487.72;4171998;28;20253;-76
2020/12/04 02:31:55;;;;;;;12.73;8.57;;;;;;;1.88;74.65;94492.22;4174886;28;20064;-78
2020/12/04 02:33:56;;;;;;;14.32;8.45;;;;;;;1.94;74.52;94490.97;4186864;28;20056;-75
2020/12/04 02:35:57;;;;;;;12.38;8.48;;;;;;;1.99;74.84;94481.91;4203407;28;20139;-76
2020/12/04 02:37:58;;;;;;;12.15;8.95;;;;;;;2.07;74.35;94480.56;4193312;28;20439;-77
2020/12/04 02:40:00;;;;;;;14.10;8.73;;;;;;;2.12;73.95;94481.84;4172889;28;20057;-76
2020/12/04 02:42:02;;;;;;;13.73;9.05;;;;;;;2.14;74.32;94469.63;4191334;28;20056;-76
2020/12/04 02:44:03;;;;;;;14.63;9.63;;;;;;;2.16;74.30;94472.09;4171714;28;20059;-76
2020/12/04 02:46:07;;;;;;;14.63;9.20;;;;;;;2.16;74.38;94479.84;4191962;28;20087;-76
2020/12/04 02:48:10;;;;;;;14.05;9.45;;;;;;;2.21;74.42;94467.41;4173596;28;20048;-74
2020/12/04 02:50:11;;;;;;;13.95;8.60;;;;;;;2.20;74.35;94460.59;4175997;28;20439;-75
2020/12/04 02:52:12;;;;;;;14.18;9.27;;;;;;;2.16;74.63;94465.16;4176907;28;20103;-76
2020/12/04 02:54:14;;;;;;;15.00;10.60;;;;;;;2.19;74.76;94469.28;4194751;28;20048;-77
2020/12/04 02:56:17;;;;;;;15.43;9.57;;;;;;;2.25;74.77;94466.25;4180043;28;20067;-76
2020/12/04 02:58:18;;;;;;;14.20;9.52;;;;;;;2.24;75.03;94462.03;4162274;28;20045;-75
2020/12/04 03:00:19;;;;;;;15.95;10.18;;;;;;;2.22;74.90;94458.72;4194410;28;20565;-77
2020/12/04 03:02:21;;;;;;;15.93;10.30;;;;;;;2.22;75.40;94463.91;4196331;28;20101;-76
2020/12/04 03:04:22;;;;;;;17.05;9.98;;;;;;;2.24;75.04;94451.69;4196126;28;20181;-77
2020/12/04 03:06:23;;;;;;;16.38;9.73;;;;;;;2.23;75.15;94455.19;4193032;28;20049;-76
2020/12/04 03:08:25;;;;;;;15.82;10.18;;;;;;;2.27;75.00;94456.63;4191830;28;20052;-77
2020/12/04 03:10:26;;;;;;;16.63;9.73;;;;;;;2.27;75.46;94455.81;4195157;28;20087;-76
2020/12/04 03:12:28;;;;;;;17.20;10.00;;;;;;;2.30;75.03;94465.91;4193689;28;20053;-75
2020/12/04 03:14:29;;;;;;;15.10;10.38;;;;;;;2.33;75.25;94469.09;4175517;28;20139;-68
2020/12/04 03:16:30;;;;;;;16.58;10.57;;;;;;;2.32;74.88;94462.25;4193601;28;20072;-68
2020/12/04 03:18:32;;;;;;;17.35;9.88;;;;;;;2.31;75.10;94462.41;4206805;28;20405;-68
2020/12/04 03:20:33;;;;;;;15.52;9.95;;;;;;;2.35;75.21;94461.22;4193144;28;20052;-68
2020/12/04 03:22:34;;;;;;;15.77;9.60;;;;;;;2.37;74.84;94467.94;4176067;28;20041;-68
2020/12/04 03:24:35;;;;;;;13.65;8.73;;;;;;;2.32;75.17;94472.59;4192964;28;20045;-68
2020/12/04 03:26:36;;;;;;;13.05;8.55;;;;;;;2.26;75.36;94465.31;4180582;28;20057;-68
2020/12/04 03:28:38;;;;;;;13.50;8.93;;;;;;;2.22;75.63;94475.06;4174300;28;20140;-68
2020/12/04 03:30:39;;;;;;;13.95;9.02;;;;;;;2.30;75.52;94474.47;4192357;28;20059;-68
2020/12/04 03:32:41;;;;;;;16.33;10.07;;;;;;;2.36;75.24;94471.44;4193845;28;20139;-68
2020/12/04 03:34:42;;;;;;;23.17;13.38;;;;;;;2.34;73.70;94470.72;4192971;28;20044;-70
2020/12/04 03:36:43;;;;;;;20.98;13.75;;;;;;;2.31;72.40;94473.56;4176610;28;20152;-68
2020/12/04 03:38:45;;;;;;;21.00;13.35;;;;;;;2.28;72.25;94463.44;4195160;28;20052;-68
2020/12/04 03:40:46;;;;;;;20.08;11.90;;;;;;;2.24;72.72;94475.78;4176027;28;20423;-68
2020/12/04 03:42:47;;;;;;;18.33;11.82;;;;;;;2.29;72.92;94470.25;4176623;28;20088;-68
2020/12/04 03:44:48;;;;;;;18.85;11.13;;;;;;;2.27;73.41;94474.72;4174157;28;20049;-68
2020/12/04 03:46:50;;;;;;;15.90;10.18;;;;;;;2.30;73.25;94478.81;4192815;28;20414;-69
2020/12/04 03:48:51;;;;;;;15.48;9.98;;;;;;;2.27;73.82;94479.88;4176068;28;20057;-69
2020/12/04 03:50:52;;;;;;;24.20;14.48;;;;;;;2.20;71.74;94471.75;4193394;28;20060;-68
2020/12/04 03:52:53;;;;;;;22.73;14.73;;;;;;;2.20;71.73;94476.94;4194266;28;20045;-67
2020/12/04 03:54:54;;;;;;;25.00;15.60;;;;;;;2.15;71.05;94473.03;4176111;28;20492;-67
2020/12/04 03:56:56;;;;;;;21.15;13.82;;;;;;;2.15;71.38;94476.47;4194657;28;20135;-68
2020/12/04 03:58:58;;;;;;;21.77;13.65;;;;;;;2.10;71.03;94488.88;4174714;28;20423;-68
2020/12/04 04:00:59;;;;;;;20.98;13.45;;;;;;;2.07;71.17;94489.13;4192431;28;20129;-68
2020/12/04 04:03:00;;;;;;;19.63;12.73;;;;;;;2.08;71.37;94483.00;4175485;28;20346;-69
2020/12/04 04:05:02;;;;;;;22.48;13.77;;;;;;;2.06;71.39;94482.28;4182874;28;20050;-68
2020/12/04 04:07:03;;;;;;;20.48;13.57;;;;;;;2.08;71.70;94484.75;4194461;28;20055;-68
2020/12/04 04:09:05;;;;;;;20.40;13.18;;;;;;;2.08;72.02;94480.41;4175804;28;20063;-76
2020/12/04 04:11:06;;;;;;;21.15;12.80;;;;;;;2.08;71.55;94480.41;4194134;28;20098;-76
2020/12/04 04:13:07;;;;;;;20.60;12.77;;;;;;;2.08;71.46;94484.75;4191924;28;20056;-75
2020/12/04 04:15:09;;;;;;;22.27;12.93;;;;;;;1.95;71.97;94474.50;4175193;28;20136;-77
2020/12/04 04:17:10;;;;;;;18.08;11.35;;;;;;;1.96;72.60;94474.41;4193618;28;20052;-76
2020/12/04 04:19:11;;;;;;;16.98;10.50;;;;;;;1.97;73.55;94477.81;4188976;28;20056;-75
2020/12/04 04:21:13;;;;;;;12.00;7.70;;;;;;;1.86;75.43;94470.84;4193997;28;20660;-75
2020/12/04 04:23:14;;;;;;;11.05;7.68;;;;;;;1.89;75.56;94468.00;4192907;28;20059;-76
2020/12/04 04:25:15;;;;;;;11.88;7.50;;;;;;;1.96;75.58;94458.09;4172033;28;20237;-77
2020/12/04 04:27:17;;;;;;;12.60;8.20;;;;;;;1.96;75.88;94471.81;4173416;28;20092;-76
2020/12/04 04:29:18;;;;;;;12.10;7.40;;;;;;;2.02;75.53;94468.78;4174354;28;20083;-76
2020/12/04 04:31:20;;;;;;;10.05;6.75;;;;;;;1.95;75.62;94467.56;4193333;28;20327;-75
2020/12/04 04:33:22;;;;;;;11.15;7.03;;;;;;;1.98;76.08;94459.63;4193818;28;20048;-76
2020/12/04 04:35:23;;;;;;;11.60;7.30;;;;;;;2.08;75.78;94461.50;4207078;28;20139;-77
2020/12/04 04:37:24;;;;;;;11.10;7.03;;;;;;;2.13;75.48;94469.72;4176991;28;20057;-75
2020/12/04 04:39:26;;;;;;;9.57;6.25;;;;;;;2.11;74.93;94456.09;4175716;28;20107;-75
2020/12/04 04:41:27;;;;;;;10.15;6.82;;;;;;;2.10;75.53;94454.47;4194486;28;20557;-78
2020/12/04 04:43:28;;;;;;;9.93;6.78;;;;;;;2.23;75.11;94468.13;4174946;28;20084;-76
2020/12/04 04:45:29;;;;;;;10.93;6.70;;;;;;;2.26;74.88;94460.16;4194530;28;20121;-77
2020/12/04 04:47:31;;;;;;;21.85;14.05;;;;;;;2.25;75.09;94458.50;4188121;28;20060;-76
2020/12/04 04:49:37;;;;;;;8.82;6.57;;;;;;;2.22;75.39;94456.97;4178375;28;20046;-75
2020/12/04 04:51:40;;;;;;;11.95;7.05;;;;;;;2.18;75.20;94452.97;4184659;28;20097;-77
2020/12/04 04:53:43;;;;;;;9.77;6.53;;;;;;;2.19;75.10;94451.19;4182233;28;20064;-75
2020/12/04 04:55:45;;;;;;;11.15;7.30;;;;;;;2.20;75.45;94461.44;4167268;28;20401;-76
2020/12/04 04:57:46;;;;;;;11.93;6.90;;;;;;;2.28;75.05;94449.69;4193397;28;20049;-75
2020/12/04 04:59:47;;;;;;;9.02;5.97;;;;;;;2.19;75.01;94440.84;4190777;28;20511;-77
2020/12/04 05:01:50;;;;;;;12.98;6.47;;;;;;;2.17;75.17;94442.72;4193654;28;20124;-77
2020/12/04 05:03:55;;;;;;;9.63;6.40;;;;;;;2.18;75.46;94447.78;4192271;28;20071;-77
2020/12/04 05:05:57;;;;;;;12.10;7.10;;;;;;;2.28;75.29;94444.50;4193341;28;20100;-76
2020/12/04 05:08:14;;;;;;;12.52;7.30;;;;;;;2.37;75.19;94449.81;4192721;28;20460;-76
2020/12/04 05:10:21;;;;;;;12.32;6.72;;;;;;;2.31;74.87;94446.88;4198255;28;20071;-75
2020/12/04 05:12:22;;;;;;;10.35;7.13;;;;;;;2.27;75.68;94458.38;4194300;28;20043;-77
2020/12/04 05:14:27;;;;;;;16.00;8.85;;;;;;;2.26;76.20;94465.31;4196574;28;20068;-76
2020/12/04 05:16:28;;;;;;;11.07;6.88;;;;;;;2.23;75.76;94461.19;4177539;28;20518;-76
2020/12/04 05:18:30;;;;;;;12.27;7.13;;;;;;;2.31;75.83;94463.22;4174454;28;20396;-77
2020/12/04 05:20:35;;;;;;;11.10;6.68;;;;;;;2.31;75.59;94455.47;4189429;28;20068;-75
2020/12/04 05:22:37;;;;;;;9.95;6.70;;;;;;;2.30;75.57;94458.97;4169271;28;20099;-77
2020/12/04 05:24:39;;;;;;;11.27;6.85;;;;;;;2.27;75.65;94451.44;4156986;28;20585;-78
2020/12/04 05:26:41;;;;;;;14.93;7.28;;;;;;;2.28;75.86;94447.09;4189790;28;20052;-78
2020/12/04 05:28:47;;;;;;;12.93;7.95;;;;;;;2.20;76.63;94450.28;4157127;28;20049;-76
2020/12/04 05:31:05;;;;;;;14.70;9.80;;;;;;;2.26;76.10;94455.00;4174662;28;20056;-76
2020/12/04 05:33:07;;;;;;;107.53;45.22;;;;;;;2.35;76.64;94456.06;4192597;28;20440;-77
2020/12/04 05:35:09;;;;;;;18.13;11.63;;;;;;;2.36;76.00;94458.50;4191856;28;20048;-76
2020/12/04 05:37:11;;;;;;;13.30;8.93;;;;;;;2.41;75.66;94455.56;4192463;28;20770;-77
2020/12/04 05:39:12;;;;;;;13.18;8.38;;;;;;;2.40;75.86;94453.94;4174310;28;20044;-75
2020/12/04 05:41:14;;;;;;;14.55;9.35;;;;;;;2.43;76.13;94444.19;4174553;28;20062;-77
2020/12/04 05:43:30;;;;;;;15.18;9.20;;;;;;;2.51;75.49;94451.34;4191514;28;20048;-77
2020/12/04 05:45:34;;;;;;;17.55;9.35;;;;;;;2.59;75.59;94440.44;4171473;28;20125;-78
2020/12/04 05:47:41;;;;;;;14.77;9.13;;;;;;;2.46;75.57;94453.47;4191212;28;20423;-79
2020/12/04 05:49:44;;;;;;;63.53;34.50;;;;;;;2.44;75.86;94456.16;4192397;28;20445;-76
2020/12/04 05:51:47;;;;;;;16.85;10.45;;;;;;;2.45;76.01;94463.00;4191752;28;20053;-77
2020/12/04 05:53:50;;;;;;;16.83;9.82;;;;;;;2.39;76.21;94458.28;4189414;28;20048;-77
2020/12/04 05:55:54;;;;;;;16.02;9.85;;;;;;;2.43;76.19;94446.78;4173616;28;20049;-77
2020/12/04 05:58:00;;;;;;;17.38;10.52;;;;;;;2.41;76.68;94458.16;4186477;28;20060;-76
2020/12/04 06:00:01;;;;;;;14.07;9.15;;;;;;;2.42;76.28;94449.47;4191185;28;20060;-76
2020/12/04 06:02:02;;;;;;;16.77;9.35;;;;;;;2.50;76.21;94441.16;4182438;28;20045;-78
2020/12/04 06:04:04;;;;;;;15.77;9.75;;;;;;;2.48;76.19;94443.03;4162129;28;20108;-78
2020/12/04 06:06:08;;;;;;;16.77;9.65;;;;;;;2.50;76.52;94439.38;4174243;28;20045;-78
2020/12/04 06:08:10;;;;;;;17.80;10.05;;;;;;;2.39;76.99;94453.13;4180586;28;20127;-78
2020/12/04 06:10:12;;;;;;;16.30;9.63;;;;;;;2.47;76.89;94468.03;4190789;28;20285;-78
2020/12/04 06:12:13;;;;;;;16.90;10.80;;;;;;;2.50;76.97;94469.59;4192079;28;20082;-80
2020/12/04 06:14:22;;;;;;;15.70;10.50;;;;;;;2.51;76.81;94476.41;4178850;28;20048;-78
2020/12/04 06:16:23;;;;;;;15.70;10.07;;;;;;;2.52;76.87;94462.50;4173714;28;20523;-78
2020/12/04 06:18:28;;;;;;;20.63;10.77;;;;;;;2.53;76.56;94472.75;4162233;28;20040;-77
2020/12/04 06:20:46;;;;;;;17.27;10.77;;;;;;;2.54;76.72;94471.81;4191732;28;20392;-76
2020/12/04 06:23:04;;;;;;;20.60;12.05;;;;;;;2.51;77.25;94463.47;4188960;28;20051;-78
2020/12/04 06:25:05;;;;;;;21.92;11.27;;;;;;;2.49;77.07;94470.53;4195510;28;20044;-78
2020/12/04 06:27:07;;;;;;;17.98;11.18;;;;;;;2.46;77.35;94462.06;4194294;28;20483;-79
2020/12/04 06:29:08;;;;;;;18.73;11.32;;;;;;;2.42;77.58;94465.81;4183058;28;20084;-70
2020/12/04 06:31:14;;;;;;;20.05;11.13;;;;;;;2.46;77.38;94471.56;4196786;28;20109;-69
2020/12/04 06:33:36;;;;;;;20.33;13.23;;;;;;;2.46;77.80;94482.75;4174726;28;20109;-69
2020/12/04 06:35:42;;;;;;;20.58;12.45;;;;;;;2.51;77.23;94468.66;4194559;28;20124;-69
2020/12/04 06:37:45;;;;;;;20.23;12.68;;;;;;;2.62;77.18;94471.22;4176406;28;20049;-70
2020/12/04 06:39:46;;;;;;;19.42;11.43;;;;;;;2.73;76.82;94479.03;4196784;28;20078;-70
2020/12/04 06:41:47;;;;;;;18.33;11.73;;;;;;;2.82;76.38;94487.84;4173885;28;20529;-69
2020/12/04 06:43:50;;;;;;;19.15;12.35;;;;;;;2.92;75.95;94499.13;4205288;28;20055;-69
2020/12/04 06:45:51;;;;;;;21.90;13.27;;;;;;;3.02;75.91;94504.41;4158375;28;20256;-70
2020/12/04 06:48:15;;;;;;;19.58;11.60;;;;;;;3.05;75.28;94504.16;4181750;28;20465;-69
2020/12/04 06:50:36;;;;;;;18.65;12.57;;;;;;;3.11;75.23;94498.53;4194815;28;20476;-68
2020/12/04 06:52:38;;;;;;;20.40;12.88;;;;;;;2.98;75.60;94500.41;4193126;28;20442;-69
2020/12/04 06:54:41;;;;;;;21.80;13.25;;;;;;;2.93;76.45;94503.34;4194501;28;20392;-69
2020/12/04 06:56:42;;;;;;;20.85;12.30;;;;;;;2.72;77.02;94510.16;4176618;28;20055;-70
2020/12/04 06:58:43;;;;;;;44.85;25.88;;;;;;;2.83;76.66;94515.34;4175503;28;20057;-70
2020/12/04 07:00:45;;;;;;;20.50;12.18;;;;;;;2.86;76.64;94515.09;4194367;28;20056;-69
2020/12/04 07:02:46;;;;;;;20.30;12.45;;;;;;;2.87;76.16;94507.22;4175786;28;20055;-69
2020/12/04 07:04:49;;;;;;;19.75;11.70;;;;;;;2.89;76.72;94501.94;4194736;28;20392;-69
2020/12/04 07:06:51;;;;;;;20.27;11.85;;;;;;;2.99;75.85;94509.81;4194736;28;20048;-68
2020/12/04 07:08:56;;;;;;;16.63;11.02;;;;;;;3.10;75.42;94517.59;4193222;28;20068;-70
2020/12/04 07:10:58;;;;;;;17.80;11.90;;;;;;;3.15;75.10;94504.28;4176437;28;20127;-70
2020/12/04 07:13:00;;;;;;;18.08;12.15;;;;;;;3.25;75.12;94510.41;4193185;28;20060;-68
2020/12/04 07:15:02;;;;;;;21.85;12.63;;;;;;;3.26;75.15;94512.88;4186973;28;20500;-70
2020/12/04 07:17:03;;;;;;;22.15;14.50;;;;;;;3.33;74.70;94496.84;4193900;28;20075;-70
2020/12/04 07:19:05;;;;;;;19.30;11.95;;;;;;;3.34;74.68;94504.50;4170410;28;20496;-79
2020/12/04 07:21:08;;;;;;;18.63;11.75;;;;;;;3.31;74.44;94514.28;4196352;28;20189;-77
2020/12/04 07:23:09;;;;;;;21.35;12.15;;;;;;;3.35;74.81;94515.69;4195399;28;20056;-77
2020/12/04 07:25:11;;;;;;;21.33;13.00;;;;;;;3.46;74.17;94510.47;4175805;28;20057;-79
2020/12/04 07:27:14;;;;;;;17.35;12.20;;;;;;;3.55;74.32;94503.75;4170456;28;20059;-79
2020/12/04 07:29:16;;;;;;;17.23;11.45;;;;;;;3.56;73.85;94495.88;4185010;28;20055;-77
2020/12/04 07:31:19;;;;;;;18.15;11.43;;;;;;;3.66;73.45;94491.63;4194039;28;20052;-78
2020/12/04 07:33:20;;;;;;;16.65;11.52;;;;;;;3.62;73.56;94497.97;4163001;28;20488;-78
2020/12/04 07:35:23;;;;;;;20.25;12.52;;;;;;;3.66;73.50;94483.84;4192010;28;20121;-78
2020/12/04 07:37:27;;;;;;;18.15;11.32;;;;;;;3.47;74.01;94494.00;4166337;28;20053;-77
2020/12/04 07:39:37;;;;;;;18.17;11.38;;;;;;;3.44;74.36;94505.44;4175374;28;20064;-78
2020/12/04 07:41:39;;;;;;;16.08;11.70;;;;;;;3.38;74.89;94497.34;4188948;28;20171;-78
2020/12/04 07:43:43;;;;;;;17.75;11.60;;;;;;;3.50;74.57;94493.75;4174951;28;20056;-80
2020/12/04 07:45:44;;;;;;;;;;;;;;;3.56;74.14;94495.88;4189520;28;20059;-79
2020/12/04 07:47:47;;;;;;;18.27;12.07;;;;;;;3.58;73.85;94488.81;4158983;28;19976;-77
2020/12/04 07:49:51;;;;;;;18.70;12.10;;;;;;;3.61;73.69;94491.13;4192590;28;20075;-78
2020/12/04 07:51:53;;;;;;;21.33;14.13;;;;;;;3.65;74.24;94482.19;4175189;28;20099;-77
2020/12/04 07:53:56;;;;;;;23.13;13.70;;;;;;;3.63;74.19;94497.03;4178365;28;20538;-77
2020/12/04 07:55:58;;;;;;;22.13;13.00;;;;;;;3.71;74.06;94495.59;4176327;28;20075;-77
2020/12/04 07:58:10;;;;;;;21.98;13.15;;;;;;;3.78;73.66;94494.16;4160446;28;20067;-79
2020/12/04 08:00:14;;;;;;;26.08;14.00;;;;;;;3.81;73.58;94486.97;4184040;28;20101;-77
2020/12/04 08:02:22;;;;;;;23.80;14.68;;;;;;;3.78;73.89;94488.97;4176063;28;20051;-80
2020/12/04 08:04:23;;;;;;;29.00;17.42;;;;;;;3.75;73.80;94500.41;4176265;28;20585;-78
2020/12/04 08:06:26;;;;;;;24.98;15.13;;;;;;;3.81;73.64;94502.53;4196594;28;20044;-78
2020/12/04 08:08:27;;;;;;;27.53;16.23;;;;;;;3.81;73.89;94510.28;4195559;28;20059;-78
2020/12/04 08:10:28;;;;;;;30.48;15.90;;;;;;;3.92;73.39;94504.25;4195614;28;20059;-77
2020/12/04 08:12:31;;;;;;;29.58;16.73;;;;;;;3.99;72.81;94502.00;4193803;28;20049;-79
2020/12/04 08:14:35;;;;;;;28.00;16.50;;;;;;;3.85;73.80;94509.09;4175964;28;20053;-76
2020/12/04 08:16:37;;;;;;;25.35;15.48;;;;;;;3.80;73.43;94500.03;4176450;28;20385;-77
2020/12/04 08:18:40;;;;;;;27.85;16.52;;;;;;;3.73;74.06;94504.91;4175626;28;20072;-74
2020/12/04 08:20:41;;;;;;;27.52;17.48;;;;;;;3.79;74.11;94506.19;4192716;28;20052;-76
2020/12/04 08:22:48;;;;;;;27.30;16.73;;;;;;;3.77;74.12;94502.91;4193778;28;20703;-70
2020/12/04 08:25:02;;;;;;;29.70;18.35;;;;;;;3.77;74.60;94508.91;4160554;28;20049;-69
2020/12/04 08:27:05;;;;;;;29.73;18.67;;;;;;;3.74;74.78;94505.72;4174139;28;20052;-69
2020/12/04 08:29:12;;;;;;;30.30;17.65;;;;;;;3.59;75.13;94489.63;4190921;28;20063;-70
2020/12/04 08:31:26;;;;;;;30.60;17.73;;;;;;;3.61;75.69;94495.50;4192307;28;20051;-69
2020/12/04 08:33:27;;;;;;;32.25;18.02;;;;;;;3.68;75.61;94501.88;4190213;28;20059;-68
2020/12/04 08:35:39;;;;;;;30.50;18.45;;;;;;;3.81;75.07;94488.75;4197896;28;20044;-69
2020/12/04 08:37:41;;;;;;;25.65;15.70;;;;;;;3.76;74.93;94488.28;4175307;28;20470;-68
2020/12/04 08:39:48;;;;;;;27.30;17.90;;;;;;;3.66;75.03;94478.66;4174331;28;20059;-70
2020/12/04 08:41:49;;;;;;;29.73;17.80;;;;;;;3.75;75.17;94486.66;4175251;28;20527;-71
2020/12/04 08:43:51;;;;;;;23.25;14.85;;;;;;;3.77;74.83;94476.97;4190827;28;20137;-69
2020/12/04 08:45:57;;;;;;;23.67;14.02;;;;;;;3.85;73.88;94467.66;4193166;28;20396;-71
2020/12/04 08:48:12;;;;;;;21.27;13.93;;;;;;;3.98;73.54;94469.22;4204084;28;20245;-70
2020/12/04 08:50:19;;;;;;;18.67;13.07;;;;;;;3.94;73.54;94455.72;4175686;28;20478;-70
2020/12/04 08:52:37;;;;;;;27.77;20.83;;;;;;;4.07;73.94;94468.50;4174331;28;20057;-70
2020/12/04 08:54:38;;;;;;;18.85;13.02;;;;;;;4.23;73.31;94470.66;4180021;28;20048;-77
2020/12/04 08:56:51;;;;;;;17.98;12.75;;;;;;;4.24;73.07;94464.53;4187776;28;20147;-77
2020/12/04 08:58:52;;;;;;;21.50;12.73;;;;;;;4.11;72.98;94467.31;4167999;28;20124;-78
2020/12/04 09:00:54;;;;;;;20.98;12.27;;;;;;;4.09;73.55;94469.19;4206211;28;20112;-78
2020/12/04 09:02:55;;;;;;;18.75;12.43;;;;;;;4.15;73.58;94473.03;4175828;28;20049;-79
2020/12/04 09:04:57;;;;;;;19.85;13.27;;;;;;;4.19;73.52;94480.44;4197211;28;20151;-77
2020/12/04 09:06:58;;;;;;;20.70;13.38;;;;;;;4.25;73.05;94479.13;4184811;28;20049;-78
2020/12/04 09:08:59;;;;;;;26.73;14.02;;;;;;;4.27;72.75;94482.41;4193216;28;20105;-79
2020/12/04 09:11:00;;;;;;;19.63;12.40;;;;;;;4.13;73.44;94473.19;4163048;28;20124;-78
2020/12/04 09:13:03;;;;;;;21.73;12.98;;;;;;;4.01;74.07;94462.03;4158543;28;20112;-78
2020/12/04 09:15:06;;;;;;;25.23;15.52;;;;;;;4.02;74.44;94458.50;4165821;28;20135;-80
2020/12/04 09:17:08;;;;;;;21.75;14.13;;;;;;;4.01;74.29;94446.47;4163982;28;20060;-79
2020/12/04 09:19:09;;;;;;;26.73;16.10;;;;;;;4.06;74.41;94444.31;4183036;28;20368;-80
2020/12/04 09:21:10;;;;;;;24.60;15.00;;;;;;;4.13;73.87;94447.25;4191548;28;20600;-78
2020/12/04 09:23:11;;;;;;;27.08;16.75;;;;;;;4.18;73.77;94452.06;4192559;28;20052;-79
2020/12/04 09:25:14;;;;;;;29.15;16.90;;;;;;;4.12;74.19;94447.38;4175432;28;20060;-77
2020/12/04 09:27:16;;;;;;;28.95;18.42;;;;;;;3.96;74.20;94440.00;4174128;28;20064;-80
2020/12/04 09:29:18;;;;;;;31.38;18.70;;;;;;;4.04;74.57;94446.25;4190806;28;20064;-77
2020/12/04 09:31:19;;;;;;;32.50;19.13;;;;;;;4.12;74.42;94447.38;4188807;28;20056;-78
2020/12/04 09:33:20;;;;;;;30.15;18.50;;;;;;;3.93;74.79;94438.50;4192722;28;20411;-77
2020/12/04 09:35:21;;;;;;;30.88;18.42;;;;;;;3.85;75.06;94444.31;4193820;28;20063;-80